Princeton, North Carolina
Current Conditions -  °F | °C
As of 7:35 AM on Saturday 20 Dec 2014 (Local Time) from KGWW Reporting Station
Broken Clouds Broken Clouds  
Wind Chill: 30°   Ceiling: 11000
Heat Index: 35°   Visibility: 10mi
Dew Point: 32°   Wind: 6mph
Humidity: 88%   Direction: 40°NE
Pressure: 30.29"   Gusts: NA
Location:  35.47°N, 78.16°W
Report Text: KGWW 201235Z AUTO 04005KT 10SM SCT070 BKN110 02/00 A3029 RMK AO2 T00171001
Loading
Personal Weather Stations






























Interactive Weather Map New forecast layout! Learn more

10-Day Weather Forecast

Advertisements
Track Severe Weather on mobile